sensor_id;sensor_type;location;lat;lon;timestamp;P1;durP1;ratioP1;P2;durP2;ratioP2
41568;SDS011;27283;52.504;13.358;2022-08-19T00:00:03;28.45;;;20.73;;
41568;SDS011;27283;52.504;13.358;2022-08-19T00:02:58;26.90;;;20.00;;
41568;SDS011;27283;52.504;13.358;2022-08-19T00:05:30;29.92;;;21.30;;
41568;SDS011;27283;52.504;13.358;2022-08-19T00:08:03;26.33;;;19.33;;
41568;SDS011;27283;52.504;13.358;2022-08-19T00:10:35;27.98;;;21.33;;
41568;SDS011;27283;52.504;13.358;2022-08-19T00:13:10;29.13;;;21.70;;
41568;SDS011;27283;52.504;13.358;2022-08-19T00:15:44;30.65;;;21.75;;
41568;SDS011;27283;52.504;13.358;2022-08-19T00:18:16;34.05;;;21.88;;
41568;SDS011;27283;52.504;13.358;2022-08-19T00:20:48;30.75;;;22.13;;
41568;SDS011;27283;52.504;13.358;2022-08-19T00:23:21;31.75;;;22.52;;
41568;SDS011;27283;52.504;13.358;2022-08-19T00:25:53;31.05;;;22.20;;
41568;SDS011;27283;52.504;13.358;2022-08-19T00:28:28;31.05;;;22.02;;
41568;SDS011;27283;52.504;13.358;2022-08-19T00:31:03;29.77;;;21.67;;
41568;SDS011;27283;52.504;13.358;2022-08-19T00:33:37;31.85;;;22.75;;
41568;SDS011;27283;52.504;13.358;2022-08-19T00:36:09;45.90;;;23.83;;
41568;SDS011;27283;52.504;13.358;2022-08-19T00:38:43;32.30;;;21.52;;
41568;SDS011;27283;52.504;13.358;2022-08-19T00:41:16;30.17;;;21.40;;
41568;SDS011;27283;52.504;13.358;2022-08-19T00:44:02;33.30;;;22.73;;
41568;SDS011;27283;52.504;13.358;2022-08-19T00:46:38;27.60;;;21.05;;
41568;SDS011;27283;52.504;13.358;2022-08-19T00:49:24;30.88;;;22.42;;
41568;SDS011;27283;52.504;13.358;2022-08-19T00:52:02;33.33;;;22.48;;
41568;SDS011;27283;52.504;13.358;2022-08-19T00:54:38;30.08;;;22.20;;
41568;SDS011;27283;52.504;13.358;2022-08-19T00:57:11;30.33;;;20.65;;
41568;SDS011;27283;52.504;13.358;2022-08-19T00:59:51;28.70;;;20.35;;
41568;SDS011;27283;52.504;13.358;2022-08-19T01:02:29;29.25;;;20.98;;
41568;SDS011;27283;52.504;13.358;2022-08-19T01:05:04;31.30;;;21.52;;
41568;SDS011;27283;52.504;13.358;2022-08-19T01:07:39;36.97;;;25.35;;
41568;SDS011;27283;52.504;13.358;2022-08-19T01:10:13;44.00;;;30.23;;
41568;SDS011;27283;52.504;13.358;2022-08-19T01:12:48;40.60;;;27.52;;
41568;SDS011;27283;52.504;13.358;2022-08-19T01:15:25;35.10;;;25.05;;
41568;SDS011;27283;52.504;13.358;2022-08-19T01:18:01;40.97;;;27.08;;
41568;SDS011;27283;52.504;13.358;2022-08-19T01:20:37;42.97;;;28.48;;
41568;SDS011;27283;52.504;13.358;2022-08-19T01:23:14;37.15;;;24.48;;
41568;SDS011;27283;52.504;13.358;2022-08-19T01:25:47;35.83;;;24.63;;
41568;SDS011;27283;52.504;13.358;2022-08-19T01:28:23;32.42;;;22.70;;
41568;SDS011;27283;52.504;13.358;2022-08-19T01:31:02;32.28;;;23.13;;
41568;SDS011;27283;52.504;13.358;2022-08-19T01:33:35;33.63;;;22.73;;
41568;SDS011;27283;52.504;13.358;2022-08-19T01:36:08;30.73;;;22.00;;
41568;SDS011;27283;52.504;13.358;2022-08-19T01:38:45;34.47;;;23.52;;
41568;SDS011;27283;52.504;13.358;2022-08-19T01:41:17;35.08;;;23.95;;
41568;SDS011;27283;52.504;13.358;2022-08-19T01:43:51;34.55;;;23.33;;
41568;SDS011;27283;52.504;13.358;2022-08-19T01:46:46;43.05;;;26.83;;
41568;SDS011;27283;52.504;13.358;2022-08-19T01:49:20;40.67;;;27.00;;
41568;SDS011;27283;52.504;13.358;2022-08-19T01:51:55;38.88;;;27.27;;
41568;SDS011;27283;52.504;13.358;2022-08-19T01:54:29;44.92;;;29.02;;
41568;SDS011;27283;52.504;13.358;2022-08-19T01:57:03;42.97;;;28.05;;
41568;SDS011;27283;52.504;13.358;2022-08-19T01:59:37;41.47;;;27.17;;
41568;SDS011;27283;52.504;13.358;2022-08-19T02:02:12;41.03;;;27.67;;
41568;SDS011;27283;52.504;13.358;2022-08-19T02:04:43;38.38;;;26.25;;
41568;SDS011;27283;52.504;13.358;2022-08-19T02:07:18;48.28;;;29.17;;
41568;SDS011;27283;52.504;13.358;2022-08-19T02:09:57;49.85;;;28.92;;
41568;SDS011;27283;52.504;13.358;2022-08-19T02:12:36;54.28;;;30.98;;
41568;SDS011;27283;52.504;13.358;2022-08-19T02:15:08;47.17;;;30.42;;
41568;SDS011;27283;52.504;13.358;2022-08-19T02:17:41;46.60;;;29.95;;
41568;SDS011;27283;52.504;13.358;2022-08-19T02:20:13;55.00;;;34.03;;
41568;SDS011;27283;52.504;13.358;2022-08-19T02:22:46;53.95;;;34.33;;
41568;SDS011;27283;52.504;13.358;2022-08-19T02:25:20;54.13;;;33.63;;
41568;SDS011;27283;52.504;13.358;2022-08-19T02:27:52;49.83;;;32.22;;
41568;SDS011;27283;52.504;13.358;2022-08-19T02:30:24;44.88;;;30.05;;
41568;SDS011;27283;52.504;13.358;2022-08-19T02:32:57;48.90;;;32.25;;
41568;SDS011;27283;52.504;13.358;2022-08-19T02:35:28;45.20;;;30.20;;
41568;SDS011;27283;52.504;13.358;2022-08-19T02:38:00;40.88;;;28.70;;
41568;SDS011;27283;52.504;13.358;2022-08-19T02:40:50;42.80;;;28.80;;
41568;SDS011;27283;52.504;13.358;2022-08-19T02:43:24;40.60;;;27.67;;
41568;SDS011;27283;52.504;13.358;2022-08-19T02:46:02;43.78;;;28.17;;
41568;SDS011;27283;52.504;13.358;2022-08-19T02:48:42;45.42;;;28.25;;
41568;SDS011;27283;52.504;13.358;2022-08-19T02:51:17;36.05;;;25.65;;
41568;SDS011;27283;52.504;13.358;2022-08-19T02:53:52;39.28;;;26.67;;
41568;SDS011;27283;52.504;13.358;2022-08-19T02:56:27;39.53;;;26.58;;
41568;SDS011;27283;52.504;13.358;2022-08-19T02:59:00;39.45;;;27.10;;
41568;SDS011;27283;52.504;13.358;2022-08-19T03:01:37;42.25;;;27.65;;
41568;SDS011;27283;52.504;13.358;2022-08-19T03:04:13;42.28;;;28.90;;
41568;SDS011;27283;52.504;13.358;2022-08-19T03:06:47;41.67;;;28.55;;
41568;SDS011;27283;52.504;13.358;2022-08-19T03:09:20;42.65;;;29.40;;
41568;SDS011;27283;52.504;13.358;2022-08-19T03:11:54;45.55;;;29.42;;
41568;SDS011;27283;52.504;13.358;2022-08-19T03:14:29;50.03;;;32.42;;
41568;SDS011;27283;52.504;13.358;2022-08-19T03:17:02;64.20;;;40.22;;
41568;SDS011;27283;52.504;13.358;2022-08-19T03:19:36;80.28;;;48.53;;
41568;SDS011;27283;52.504;13.358;2022-08-19T03:22:08;86.10;;;49.95;;
41568;SDS011;27283;52.504;13.358;2022-08-19T03:24:40;78.40;;;47.10;;
41568;SDS011;27283;52.504;13.358;2022-08-19T03:27:15;76.22;;;47.92;;
41568;SDS011;27283;52.504;13.358;2022-08-19T03:29:48;83.15;;;48.50;;
41568;SDS011;27283;52.504;13.358;2022-08-19T03:32:20;81.85;;;47.75;;
41568;SDS011;27283;52.504;13.358;2022-08-19T05:26:30;32.70;;;24.48;;
41568;SDS011;27283;52.504;13.358;2022-08-19T05:29:31;31.50;;;23.95;;
41568;SDS011;27283;52.504;13.358;2022-08-19T05:32:53;34.13;;;24.67;;
41568;SDS011;27283;52.504;13.358;2022-08-19T05:35:39;32.58;;;23.58;;
41568;SDS011;27283;52.504;13.358;2022-08-19T05:39:29;29.17;;;21.80;;
41568;SDS011;27283;52.504;13.358;2022-08-19T05:45:38;30.13;;;21.65;;
41568;SDS011;27283;52.504;13.358;2022-08-19T05:48:11;30.08;;;21.45;;
41568;SDS011;27283;52.504;13.358;2022-08-19T05:51:02;29.98;;;21.90;;
41568;SDS011;27283;52.504;13.358;2022-08-19T05:53:43;31.00;;;20.65;;
41568;SDS011;27283;52.504;13.358;2022-08-19T05:57:09;26.25;;;19.92;;
41568;SDS011;27283;52.504;13.358;2022-08-19T06:03:53;26.65;;;20.45;;
41568;SDS011;27283;52.504;13.358;2022-08-19T06:07:15;27.13;;;19.88;;
41568;SDS011;27283;52.504;13.358;2022-08-19T06:09:50;29.63;;;21.75;;
41568;SDS011;27283;52.504;13.358;2022-08-19T06:12:38;28.00;;;22.05;;
41568;SDS011;27283;52.504;13.358;2022-08-19T06:16:28;29.33;;;21.02;;
41568;SDS011;27283;52.504;13.358;2022-08-19T06:19:03;28.80;;;21.30;;
41568;SDS011;27283;52.504;13.358;2022-08-19T06:21:37;28.05;;;20.70;;
41568;SDS011;27283;52.504;13.358;2022-08-19T06:24:32;29.00;;;21.00;;
41568;SDS011;27283;52.504;13.358;2022-08-19T06:27:46;29.55;;;21.33;;
41568;SDS011;27283;52.504;13.358;2022-08-19T06:30:38;27.35;;;20.55;;
41568;SDS011;27283;52.504;13.358;2022-08-19T06:33:13;27.83;;;20.73;;
41568;SDS011;27283;52.504;13.358;2022-08-19T06:36:36;29.77;;;20.08;;
41568;SDS011;27283;52.504;13.358;2022-08-19T06:39:14;28.80;;;20.90;;
41568;SDS011;27283;52.504;13.358;2022-08-19T06:42:57;25.75;;;19.90;;
41568;SDS011;27283;52.504;13.358;2022-08-19T06:46:21;28.63;;;20.80;;
41568;SDS011;27283;52.504;13.358;2022-08-19T06:48:58;26.25;;;20.63;;
41568;SDS011;27283;52.504;13.358;2022-08-19T06:52:20;29.75;;;22.02;;
41568;SDS011;27283;52.504;13.358;2022-08-19T06:54:52;31.13;;;20.40;;
41568;SDS011;27283;52.504;13.358;2022-08-19T06:57:40;28.77;;;21.73;;
41568;SDS011;27283;52.504;13.358;2022-08-19T07:00:52;30.55;;;22.08;;
41568;SDS011;27283;52.504;13.358;2022-08-19T07:03:25;29.73;;;22.20;;
41568;SDS011;27283;52.504;13.358;2022-08-19T07:06:05;32.00;;;23.98;;
41568;SDS011;27283;52.504;13.358;2022-08-19T07:09:28;29.58;;;23.50;;
41568;SDS011;27283;52.504;13.358;2022-08-19T07:12:10;37.45;;;24.55;;
41568;SDS011;27283;52.504;13.358;2022-08-19T07:15:43;37.15;;;24.92;;
41568;SDS011;27283;52.504;13.358;2022-08-19T07:18:59;38.33;;;25.30;;
41568;SDS011;27283;52.504;13.358;2022-08-19T07:21:49;35.72;;;24.98;;
41568;SDS011;27283;52.504;13.358;2022-08-19T07:24:24;30.67;;;23.02;;
41568;SDS011;27283;52.504;13.358;2022-08-19T07:27:01;30.55;;;23.13;;
41568;SDS011;27283;52.504;13.358;2022-08-19T07:29:42;31.70;;;23.30;;
41568;SDS011;27283;52.504;13.358;2022-08-19T07:32:23;32.90;;;23.30;;
41568;SDS011;27283;52.504;13.358;2022-08-19T07:34:56;27.30;;;21.65;;
41568;SDS011;27283;52.504;13.358;2022-08-19T07:37:31;31.98;;;23.23;;
41568;SDS011;27283;52.504;13.358;2022-08-19T07:40:06;31.20;;;22.33;;
41568;SDS011;27283;52.504;13.358;2022-08-19T07:42:39;29.02;;;21.42;;
41568;SDS011;27283;52.504;13.358;2022-08-19T07:45:12;33.40;;;23.20;;
41568;SDS011;27283;52.504;13.358;2022-08-19T07:47:44;31.35;;;23.40;;
41568;SDS011;27283;52.504;13.358;2022-08-19T07:50:19;30.23;;;23.42;;
41568;SDS011;27283;52.504;13.358;2022-08-19T07:52:55;30.45;;;22.83;;
41568;SDS011;27283;52.504;13.358;2022-08-19T07:55:27;31.60;;;24.48;;
41568;SDS011;27283;52.504;13.358;2022-08-19T07:58:12;31.17;;;24.40;;
41568;SDS011;27283;52.504;13.358;2022-08-19T08:00:48;33.95;;;25.90;;
41568;SDS011;27283;52.504;13.358;2022-08-19T08:03:22;33.83;;;25.08;;
41568;SDS011;27283;52.504;13.358;2022-08-19T08:06:15;34.25;;;26.50;;
41568;SDS011;27283;52.504;13.358;2022-08-19T08:09:03;39.17;;;28.75;;
41568;SDS011;27283;52.504;13.358;2022-08-19T08:11:47;37.78;;;28.23;;
41568;SDS011;27283;52.504;13.358;2022-08-19T08:14:22;37.53;;;28.17;;
41568;SDS011;27283;52.504;13.358;2022-08-19T08:17:04;38.33;;;27.85;;
41568;SDS011;27283;52.504;13.358;2022-08-19T08:19:38;39.50;;;27.63;;
41568;SDS011;27283;52.504;13.358;2022-08-19T08:22:14;36.20;;;27.00;;
41568;SDS011;27283;52.504;13.358;2022-08-19T08:25:22;39.15;;;27.73;;
41568;SDS011;27283;52.504;13.358;2022-08-19T08:27:59;38.08;;;27.20;;
41568;SDS011;27283;52.504;13.358;2022-08-19T08:30:32;38.80;;;28.52;;
41568;SDS011;27283;52.504;13.358;2022-08-19T08:33:05;37.97;;;28.27;;
41568;SDS011;27283;52.504;13.358;2022-08-19T08:35:38;37.22;;;28.65;;
41568;SDS011;27283;52.504;13.358;2022-08-19T08:38:14;36.75;;;28.45;;
41568;SDS011;27283;52.504;13.358;2022-08-19T08:40:50;38.70;;;27.45;;
41568;SDS011;27283;52.504;13.358;2022-08-19T08:43:35;32.42;;;26.00;;
41568;SDS011;27283;52.504;13.358;2022-08-19T08:46:12;39.95;;;28.63;;
41568;SDS011;27283;52.504;13.358;2022-08-19T08:49:02;36.63;;;27.98;;
41568;SDS011;27283;52.504;13.358;2022-08-19T08:51:41;36.85;;;27.77;;
41568;SDS011;27283;52.504;13.358;2022-08-19T08:54:30;35.80;;;28.42;;
41568;SDS011;27283;52.504;13.358;2022-08-19T08:57:10;38.08;;;27.77;;
41568;SDS011;27283;52.504;13.358;2022-08-19T08:59:46;44.63;;;29.25;;
41568;SDS011;27283;52.504;13.358;2022-08-19T09:02:22;35.22;;;28.40;;
41568;SDS011;27283;52.504;13.358;2022-08-19T09:04:57;35.65;;;26.20;;
41568;SDS011;27283;52.504;13.358;2022-08-19T09:07:33;37.10;;;28.02;;
41568;SDS011;27283;52.504;13.358;2022-08-19T09:10:15;34.60;;;27.48;;
41568;SDS011;27283;52.504;13.358;2022-08-19T09:12:58;34.13;;;24.75;;
41568;SDS011;27283;52.504;13.358;2022-08-19T09:15:41;37.28;;;26.20;;
41568;SDS011;27283;52.504;13.358;2022-08-19T09:18:16;32.63;;;24.17;;
41568;SDS011;27283;52.504;13.358;2022-08-19T09:20:49;34.05;;;24.60;;
41568;SDS011;27283;52.504;13.358;2022-08-19T09:23:24;33.30;;;24.98;;
41568;SDS011;27283;52.504;13.358;2022-08-19T09:25:56;34.40;;;26.13;;
41568;SDS011;27283;52.504;13.358;2022-08-19T09:28:31;33.35;;;25.48;;
41568;SDS011;27283;52.504;13.358;2022-08-19T09:31:06;33.35;;;25.00;;
41568;SDS011;27283;52.504;13.358;2022-08-19T09:33:38;30.55;;;23.50;;
41568;SDS011;27283;52.504;13.358;2022-08-19T09:36:13;34.00;;;24.40;;
41568;SDS011;27283;52.504;13.358;2022-08-19T09:39:02;33.47;;;23.55;;
41568;SDS011;27283;52.504;13.358;2022-08-19T09:41:43;33.50;;;24.60;;
41568;SDS011;27283;52.504;13.358;2022-08-19T09:44:20;32.65;;;24.42;;
41568;SDS011;27283;52.504;13.358;2022-08-19T09:46:54;35.33;;;24.02;;
41568;SDS011;27283;52.504;13.358;2022-08-19T09:49:26;30.50;;;24.05;;
41568;SDS011;27283;52.504;13.358;2022-08-19T09:51:59;28.92;;;22.67;;
41568;SDS011;27283;52.504;13.358;2022-08-19T09:54:31;30.30;;;22.58;;
41568;SDS011;27283;52.504;13.358;2022-08-19T09:57:04;27.85;;;22.33;;
41568;SDS011;27283;52.504;13.358;2022-08-19T09:59:39;30.00;;;21.67;;
41568;SDS011;27283;52.504;13.358;2022-08-19T10:02:12;28.38;;;22.33;;
41568;SDS011;27283;52.504;13.358;2022-08-19T10:04:49;32.00;;;23.17;;
41568;SDS011;27283;52.504;13.358;2022-08-19T10:07:33;29.92;;;22.13;;
41568;SDS011;27283;52.504;13.358;2022-08-19T10:10:05;27.92;;;20.90;;
41568;SDS011;27283;52.504;13.358;2022-08-19T10:12:40;29.35;;;22.17;;
41568;SDS011;27283;52.504;13.358;2022-08-19T10:15:18;28.38;;;22.40;;
41568;SDS011;27283;52.504;13.358;2022-08-19T10:17:56;27.45;;;21.50;;
41568;SDS011;27283;52.504;13.358;2022-08-19T10:20:32;32.75;;;22.00;;
41568;SDS011;27283;52.504;13.358;2022-08-19T10:23:05;28.88;;;22.48;;
41568;SDS011;27283;52.504;13.358;2022-08-19T10:25:36;27.98;;;21.52;;
41568;SDS011;27283;52.504;13.358;2022-08-19T10:28:10;28.77;;;22.17;;
41568;SDS011;27283;52.504;13.358;2022-08-19T10:30:52;28.55;;;21.83;;
41568;SDS011;27283;52.504;13.358;2022-08-19T10:33:25;27.23;;;20.85;;
41568;SDS011;27283;52.504;13.358;2022-08-19T10:36:20;30.42;;;20.45;;
41568;SDS011;27283;52.504;13.358;2022-08-19T10:38:54;28.10;;;20.73;;
41568;SDS011;27283;52.504;13.358;2022-08-19T10:41:30;29.00;;;21.10;;
41568;SDS011;27283;52.504;13.358;2022-08-19T10:44:05;28.80;;;21.15;;
41568;SDS011;27283;52.504;13.358;2022-08-19T10:46:43;27.33;;;20.77;;
41568;SDS011;27283;52.504;13.358;2022-08-19T10:49:17;28.02;;;20.88;;
41568;SDS011;27283;52.504;13.358;2022-08-19T10:51:52;30.73;;;21.90;;
41568;SDS011;27283;52.504;13.358;2022-08-19T10:54:39;28.20;;;21.38;;
41568;SDS011;27283;52.504;13.358;2022-08-19T10:57:24;29.90;;;21.25;;
41568;SDS011;27283;52.504;13.358;2022-08-19T11:00:17;28.60;;;22.40;;
41568;SDS011;27283;52.504;13.358;2022-08-19T11:02:53;27.90;;;21.75;;
41568;SDS011;27283;52.504;13.358;2022-08-19T11:05:25;27.45;;;21.10;;
41568;SDS011;27283;52.504;13.358;2022-08-19T11:08:06;29.80;;;20.88;;
41568;SDS011;27283;52.504;13.358;2022-08-19T11:10:51;27.88;;;20.77;;
41568;SDS011;27283;52.504;13.358;2022-08-19T11:13:27;27.88;;;20.80;;
41568;SDS011;27283;52.504;13.358;2022-08-19T11:16:00;27.15;;;20.23;;
41568;SDS011;27283;52.504;13.358;2022-08-19T11:18:40;28.98;;;20.50;;
41568;SDS011;27283;52.504;13.358;2022-08-19T11:21:15;24.80;;;19.65;;
41568;SDS011;27283;52.504;13.358;2022-08-19T11:23:51;23.95;;;18.92;;
41568;SDS011;27283;52.504;13.358;2022-08-19T11:26:26;27.45;;;19.83;;
41568;SDS011;27283;52.504;13.358;2022-08-19T11:29:00;27.20;;;19.10;;
41568;SDS011;27283;52.504;13.358;2022-08-19T11:31:34;24.92;;;19.50;;
41568;SDS011;27283;52.504;13.358;2022-08-19T11:34:11;28.38;;;19.08;;
41568;SDS011;27283;52.504;13.358;2022-08-19T11:36:45;25.23;;;18.48;;
41568;SDS011;27283;52.504;13.358;2022-08-19T11:39:20;27.55;;;19.13;;
41568;SDS011;27283;52.504;13.358;2022-08-19T11:41:54;22.83;;;18.50;;
41568;SDS011;27283;52.504;13.358;2022-08-19T11:44:25;24.17;;;18.15;;
41568;SDS011;27283;52.504;13.358;2022-08-19T11:46:58;25.00;;;18.15;;
41568;SDS011;27283;52.504;13.358;2022-08-19T11:49:38;22.27;;;17.35;;
41568;SDS011;27283;52.504;13.358;2022-08-19T11:52:10;25.23;;;18.67;;
41568;SDS011;27283;52.504;13.358;2022-08-19T11:54:42;23.33;;;18.50;;
41568;SDS011;27283;52.504;13.358;2022-08-19T11:57:14;22.85;;;18.17;;
41568;SDS011;27283;52.504;13.358;2022-08-19T11:59:48;22.95;;;18.05;;
41568;SDS011;27283;52.504;13.358;2022-08-19T12:02:21;22.85;;;17.13;;
41568;SDS011;27283;52.504;13.358;2022-08-19T12:04:56;21.13;;;16.60;;
41568;SDS011;27283;52.504;13.358;2022-08-19T12:07:34;22.27;;;16.77;;
41568;SDS011;27283;52.504;13.358;2022-08-19T12:10:06;20.13;;;15.50;;
41568;SDS011;27283;52.504;13.358;2022-08-19T12:12:39;18.70;;;14.85;;
41568;SDS011;27283;52.504;13.358;2022-08-19T12:15:27;20.50;;;15.18;;
41568;SDS011;27283;52.504;13.358;2022-08-19T12:18:04;18.75;;;15.20;;
41568;SDS011;27283;52.504;13.358;2022-08-19T12:20:39;20.33;;;14.50;;
41568;SDS011;27283;52.504;13.358;2022-08-19T12:23:14;21.00;;;15.20;;
41568;SDS011;27283;52.504;13.358;2022-08-19T12:25:46;19.58;;;14.85;;
41568;SDS011;27283;52.504;13.358;2022-08-19T12:28:23;16.88;;;13.63;;
41568;SDS011;27283;52.504;13.358;2022-08-19T12:30:56;19.38;;;14.77;;
41568;SDS011;27283;52.504;13.358;2022-08-19T12:33:30;20.10;;;14.75;;
41568;SDS011;27283;52.504;13.358;2022-08-19T12:36:05;18.83;;;14.35;;
41568;SDS011;27283;52.504;13.358;2022-08-19T12:38:40;18.58;;;14.13;;
41568;SDS011;27283;52.504;13.358;2022-08-19T12:41:15;16.85;;;12.55;;
41568;SDS011;27283;52.504;13.358;2022-08-19T12:43:50;17.73;;;13.07;;
41568;SDS011;27283;52.504;13.358;2022-08-19T12:46:22;16.70;;;13.10;;
41568;SDS011;27283;52.504;13.358;2022-08-19T12:48:54;16.50;;;12.05;;
41568;SDS011;27283;52.504;13.358;2022-08-19T12:51:27;15.18;;;12.30;;
41568;SDS011;27283;52.504;13.358;2022-08-19T12:53:59;15.77;;;12.00;;
41568;SDS011;27283;52.504;13.358;2022-08-19T12:56:32;15.65;;;12.70;;
41568;SDS011;27283;52.504;13.358;2022-08-19T12:59:04;18.05;;;14.13;;
41568;SDS011;27283;52.504;13.358;2022-08-19T13:01:39;15.45;;;12.75;;
41568;SDS011;27283;52.504;13.358;2022-08-19T13:04:12;18.48;;;13.65;;
41568;SDS011;27283;52.504;13.358;2022-08-19T13:06:47;20.08;;;14.25;;
41568;SDS011;27283;52.504;13.358;2022-08-19T13:09:19;19.65;;;15.10;;
41568;SDS011;27283;52.504;13.358;2022-08-19T13:11:51;19.92;;;14.90;;
41568;SDS011;27283;52.504;13.358;2022-08-19T13:14:25;20.55;;;14.88;;
41568;SDS011;27283;52.504;13.358;2022-08-19T13:17:00;18.33;;;14.15;;
41568;SDS011;27283;52.504;13.358;2022-08-19T13:19:32;18.10;;;13.68;;
41568;SDS011;27283;52.504;13.358;2022-08-19T13:22:10;20.00;;;13.88;;
41568;SDS011;27283;52.504;13.358;2022-08-19T13:24:42;18.35;;;14.57;;
41568;SDS011;27283;52.504;13.358;2022-08-19T13:27:14;19.25;;;15.40;;
41568;SDS011;27283;52.504;13.358;2022-08-19T13:29:46;18.33;;;14.43;;
41568;SDS011;27283;52.504;13.358;2022-08-19T13:32:29;21.80;;;15.13;;
41568;SDS011;27283;52.504;13.358;2022-08-19T13:35:17;17.88;;;14.38;;
41568;SDS011;27283;52.504;13.358;2022-08-19T13:37:54;17.08;;;13.65;;
41568;SDS011;27283;52.504;13.358;2022-08-19T13:40:26;20.85;;;15.82;;
41568;SDS011;27283;52.504;13.358;2022-08-19T13:42:59;19.60;;;14.23;;
41568;SDS011;27283;52.504;13.358;2022-08-19T13:45:50;20.90;;;15.60;;
41568;SDS011;27283;52.504;13.358;2022-08-19T13:48:25;20.80;;;14.98;;
41568;SDS011;27283;52.504;13.358;2022-08-19T13:50:57;19.55;;;15.27;;
41568;SDS011;27283;52.504;13.358;2022-08-19T13:53:34;20.05;;;14.95;;
41568;SDS011;27283;52.504;13.358;2022-08-19T13:56:19;20.23;;;15.77;;
41568;SDS011;27283;52.504;13.358;2022-08-19T13:58:53;21.00;;;15.20;;
41568;SDS011;27283;52.504;13.358;2022-08-19T14:04:24;22.45;;;16.00;;
41568;SDS011;27283;52.504;13.358;2022-08-19T14:06:57;19.40;;;15.65;;
41568;SDS011;27283;52.504;13.358;2022-08-19T14:09:32;19.10;;;14.75;;
41568;SDS011;27283;52.504;13.358;2022-08-19T14:12:05;20.70;;;15.45;;
41568;SDS011;27283;52.504;13.358;2022-08-19T14:14:37;21.20;;;16.35;;
41568;SDS011;27283;52.504;13.358;2022-08-19T14:17:10;19.45;;;15.63;;
41568;SDS011;27283;52.504;13.358;2022-08-19T14:19:46;20.25;;;14.50;;
41568;SDS011;27283;52.504;13.358;2022-08-19T14:22:17;20.35;;;15.05;;
41568;SDS011;27283;52.504;13.358;2022-08-19T14:24:52;22.30;;;15.43;;
41568;SDS011;27283;52.504;13.358;2022-08-19T14:27:27;20.10;;;15.55;;
41568;SDS011;27283;52.504;13.358;2022-08-19T14:29:59;20.40;;;14.95;;
41568;SDS011;27283;52.504;13.358;2022-08-19T14:32:31;20.80;;;14.85;;
41568;SDS011;27283;52.504;13.358;2022-08-19T14:35:04;18.27;;;14.52;;
41568;SDS011;27283;52.504;13.358;2022-08-19T14:37:37;18.55;;;14.93;;
41568;SDS011;27283;52.504;13.358;2022-08-19T14:40:16;20.08;;;15.18;;
41568;SDS011;27283;52.504;13.358;2022-08-19T14:42:57;19.73;;;14.40;;
41568;SDS011;27283;52.504;13.358;2022-08-19T14:45:32;17.77;;;14.50;;
41568;SDS011;27283;52.504;13.358;2022-08-19T14:48:09;19.63;;;14.95;;
41568;SDS011;27283;52.504;13.358;2022-08-19T14:50:49;20.52;;;14.32;;
41568;SDS011;27283;52.504;13.358;2022-08-19T14:53:21;17.60;;;14.35;;
41568;SDS011;27283;52.504;13.358;2022-08-19T14:55:56;18.17;;;14.32;;
41568;SDS011;27283;52.504;13.358;2022-08-19T14:58:28;18.35;;;13.70;;
41568;SDS011;27283;52.504;13.358;2022-08-19T15:01:04;18.27;;;13.43;;
41568;SDS011;27283;52.504;13.358;2022-08-19T15:03:36;16.00;;;12.35;;
41568;SDS011;27283;52.504;13.358;2022-08-19T15:06:08;18.67;;;13.05;;
41568;SDS011;27283;52.504;13.358;2022-08-19T15:08:41;15.80;;;12.07;;
41568;SDS011;27283;52.504;13.358;2022-08-19T15:11:16;15.27;;;12.23;;
41568;SDS011;27283;52.504;13.358;2022-08-19T15:13:50;16.40;;;12.13;;
41568;SDS011;27283;52.504;13.358;2022-08-19T15:16:22;14.30;;;11.48;;
41568;SDS011;27283;52.504;13.358;2022-08-19T15:18:56;15.18;;;12.30;;
41568;SDS011;27283;52.504;13.358;2022-08-19T15:21:29;17.30;;;12.68;;
41568;SDS011;27283;52.504;13.358;2022-08-19T15:24:01;17.15;;;13.00;;
41568;SDS011;27283;52.504;13.358;2022-08-19T15:26:36;15.93;;;12.70;;
41568;SDS011;27283;52.504;13.358;2022-08-19T15:29:07;15.43;;;11.98;;
41568;SDS011;27283;52.504;13.358;2022-08-19T15:31:42;16.30;;;12.18;;
41568;SDS011;27283;52.504;13.358;2022-08-19T15:34:16;19.10;;;13.88;;
41568;SDS011;27283;52.504;13.358;2022-08-19T15:36:48;15.43;;;12.15;;
41568;SDS011;27283;52.504;13.358;2022-08-19T15:39:20;16.83;;;12.60;;
41568;SDS011;27283;52.504;13.358;2022-08-19T15:41:57;14.35;;;11.50;;
41568;SDS011;27283;52.504;13.358;2022-08-19T15:44:34;15.55;;;11.88;;
41568;SDS011;27283;52.504;13.358;2022-08-19T15:47:06;15.73;;;12.10;;
41568;SDS011;27283;52.504;13.358;2022-08-19T15:49:39;18.83;;;12.65;;
41568;SDS011;27283;52.504;13.358;2022-08-19T15:52:11;17.45;;;12.93;;
41568;SDS011;27283;52.504;13.358;2022-08-19T15:54:43;18.98;;;14.68;;
41568;SDS011;27283;52.504;13.358;2022-08-19T15:57:25;18.63;;;14.30;;
41568;SDS011;27283;52.504;13.358;2022-08-19T16:00:10;18.83;;;15.02;;
41568;SDS011;27283;52.504;13.358;2022-08-19T16:02:54;18.83;;;14.40;;
41568;SDS011;27283;52.504;13.358;2022-08-19T16:05:39;20.50;;;15.40;;
41568;SDS011;27283;52.504;13.358;2022-08-19T16:08:22;19.73;;;15.27;;
41568;SDS011;27283;52.504;13.358;2022-08-19T16:11:00;23.65;;;16.50;;
41568;SDS011;27283;52.504;13.358;2022-08-19T16:13:34;20.63;;;15.20;;
41568;SDS011;27283;52.504;13.358;2022-08-19T16:16:08;18.77;;;14.13;;
41568;SDS011;27283;52.504;13.358;2022-08-19T16:18:41;20.20;;;15.05;;
41568;SDS011;27283;52.504;13.358;2022-08-19T16:21:15;19.25;;;15.25;;
41568;SDS011;27283;52.504;13.358;2022-08-19T16:23:46;21.88;;;14.77;;
41568;SDS011;27283;52.504;13.358;2022-08-19T16:26:19;18.92;;;14.38;;
41568;SDS011;27283;52.504;13.358;2022-08-19T16:28:57;18.73;;;14.38;;
41568;SDS011;27283;52.504;13.358;2022-08-19T16:32:02;20.17;;;14.98;;
41568;SDS011;27283;52.504;13.358;2022-08-19T16:34:38;18.45;;;14.63;;
41568;SDS011;27283;52.504;13.358;2022-08-19T16:37:11;18.38;;;14.48;;
41568;SDS011;27283;52.504;13.358;2022-08-19T16:39:45;18.73;;;14.10;;
41568;SDS011;27283;52.504;13.358;2022-08-19T16:42:17;18.27;;;14.55;;
41568;SDS011;27283;52.504;13.358;2022-08-19T16:44:52;17.88;;;13.80;;
41568;SDS011;27283;52.504;13.358;2022-08-19T16:47:25;18.50;;;14.52;;
41568;SDS011;27283;52.504;13.358;2022-08-19T16:49:57;22.05;;;14.20;;
41568;SDS011;27283;52.504;13.358;2022-08-19T16:52:29;17.30;;;13.35;;
41568;SDS011;27283;52.504;13.358;2022-08-19T16:55:03;16.88;;;13.73;;
41568;SDS011;27283;52.504;13.358;2022-08-19T16:57:36;16.45;;;12.98;;
41568;SDS011;27283;52.504;13.358;2022-08-19T17:00:12;18.10;;;13.10;;
41568;SDS011;27283;52.504;13.358;2022-08-19T17:02:45;16.10;;;12.40;;
41568;SDS011;27283;52.504;13.358;2022-08-19T17:05:17;15.35;;;12.27;;
41568;SDS011;27283;52.504;13.358;2022-08-19T17:07:49;16.02;;;11.68;;
41568;SDS011;27283;52.504;13.358;2022-08-19T17:10:21;14.00;;;11.35;;
41568;SDS011;27283;52.504;13.358;2022-08-19T17:12:54;16.25;;;12.38;;